createdAt,value
2019-05-19T00:00:30.110Z,92.60
2019-05-19T00:02:58.840Z,92.92
2019-05-19T00:05:27.772Z,93.45
2019-05-19T00:07:56.480Z,94.17
2019-05-19T00:10:25.189Z,94.78
2019-05-19T00:12:53.828Z,95.14
2019-05-19T00:15:22.523Z,95.57
2019-05-19T00:17:51.178Z,95.78
2019-05-19T00:20:19.872Z,95.74
2019-05-19T00:22:48.594Z,95.93
2019-05-19T00:25:17.312Z,96.36
2019-05-19T00:27:45.999Z,96.54
2019-05-19T00:30:15.182Z,96.59
2019-05-19T00:32:43.861Z,96.31
2019-05-19T00:35:12.592Z,96.25
2019-05-19T00:37:41.325Z,96.39
2019-05-19T00:40:10.527Z,96.60
2019-05-19T00:42:39.267Z,96.79
2019-05-19T00:45:08.918Z,96.81
2019-05-19T00:47:37.637Z,96.98
2019-05-19T00:50:07.480Z,97.15
2019-05-19T00:52:38.857Z,97.13
2019-05-19T00:55:07.774Z,97.17
2019-05-19T00:57:38.487Z,96.90
2019-05-19T01:00:08.754Z,96.35
2019-05-19T01:02:37.512Z,95.76
2019-05-19T01:05:09.270Z,95.49
2019-05-19T01:07:38.126Z,95.47
2019-05-19T01:10:09.261Z,95.29
2019-05-19T01:12:38.303Z,95.00
2019-05-19T01:15:08.148Z,94.94
2019-05-19T01:17:36.851Z,94.66
2019-05-19T01:20:09.576Z,94.83
2019-05-19T01:22:38.362Z,95.41
2019-05-19T01:25:08.417Z,95.94
2019-05-19T01:27:37.154Z,96.31
2019-05-19T01:30:10.286Z,96.32
2019-05-19T01:32:39.224Z,96.57
2019-05-19T01:35:08.215Z,96.69
2019-05-19T01:37:36.927Z,96.92
2019-05-19T01:40:09.365Z,97.24
2019-05-19T01:42:38.450Z,96.87
2019-05-19T01:45:09.661Z,96.60
2019-05-19T01:47:38.440Z,96.27
2019-05-19T01:50:17.531Z,96.17
2019-05-19T01:52:38.532Z,96.23
2019-05-19T01:55:08.032Z,96.25
2019-05-19T01:57:36.785Z,96.35
2019-05-19T02:00:10.418Z,97.02
2019-05-19T02:02:39.127Z,97.45
2019-05-19T02:05:08.995Z,98.02
2019-05-19T02:07:37.997Z,98.16
2019-05-19T02:10:09.701Z,98.18
2019-05-19T02:12:38.487Z,98.16
2019-05-19T02:15:08.463Z,98.13
2019-05-19T02:17:37.105Z,98.18
2019-05-19T02:20:33.240Z,98.35
2019-05-19T02:22:59.801Z,98.45
2019-05-19T02:25:28.578Z,98.51
2019-05-19T02:27:57.239Z,98.78
2019-05-19T02:30:26.108Z,99.16
2019-05-19T02:32:55.148Z,99.31
2019-05-19T02:35:23.957Z,99.29
2019-05-19T02:37:52.664Z,99.39
2019-05-19T02:40:21.480Z,99.43
2019-05-19T02:42:52.620Z,99.31
2019-05-19T02:45:21.372Z,98.99
2019-05-19T02:47:52.454Z,98.69
2019-05-19T02:50:21.608Z,98.47
2019-05-19T02:52:52.168Z,98.42
2019-05-19T02:55:21.146Z,98.42
2019-05-19T02:57:51.882Z,98.65
2019-05-19T03:00:23.529Z,98.94
2019-05-19T03:02:52.129Z,99.41
2019-05-19T03:05:20.859Z,99.66
2019-05-19T03:07:49.658Z,99.65
2019-05-19T03:10:18.387Z,99.70
2019-05-19T03:12:47.406Z,99.71
2019-05-19T03:15:16.455Z,99.56
2019-05-19T03:17:45.144Z,99.14
2019-05-19T03:20:13.855Z,98.78
2019-05-19T03:22:42.669Z,98.63
2019-05-19T03:25:11.711Z,98.55
2019-05-19T03:27:40.508Z,98.74
2019-05-19T03:30:27.925Z,99.20
2019-05-19T03:33:01.308Z,99.38
2019-05-19T03:35:29.994Z,99.45
2019-05-19T03:37:58.797Z,99.41
2019-05-19T03:40:27.530Z,99.47
2019-05-19T03:42:56.196Z,99.39
2019-05-19T03:45:24.953Z,99.47
2019-05-19T03:47:53.683Z,99.36
2019-05-19T03:50:22.393Z,98.91
2019-05-19T03:52:51.110Z,98.97
2019-05-19T03:55:19.763Z,99.12
2019-05-19T03:57:48.459Z,99.29
2019-05-19T04:00:17.523Z,99.34
2019-05-19T04:02:46.185Z,99.21
2019-05-19T04:05:14.936Z,98.79
2019-05-19T04:07:43.595Z,98.23
2019-05-19T04:10:12.703Z,98.10
2019-05-19T04:12:41.405Z,97.86
2019-05-19T04:15:10.328Z,97.53
2019-05-19T04:17:39.035Z,97.15
2019-05-19T04:20:08.364Z,97.01
2019-05-19T04:22:37.282Z,97.30
2019-05-19T04:25:07.398Z,97.11
2019-05-19T04:27:38.755Z,96.79
2019-05-19T04:30:08.801Z,96.51
2019-05-19T04:32:37.576Z,96.52
2019-05-19T04:35:09.473Z,96.18
2019-05-19T04:37:38.147Z,95.75
2019-05-19T04:40:07.103Z,93.71
2019-05-19T04:42:35.746Z,93.36
2019-05-19T04:45:05.037Z,93.12
2019-05-19T04:47:35.114Z,91.61
2019-05-19T04:50:05.086Z,89.93
2019-05-19T04:52:34.292Z,91.43
2019-05-19T04:55:03.135Z,91.42
2019-05-19T04:57:31.799Z,90.96
2019-05-19T05:00:00.742Z,91.06
2019-05-19T05:02:29.365Z,90.83
2019-05-19T05:04:58.018Z,89.69
2019-05-19T05:07:26.816Z,89.06
2019-05-19T05:09:55.451Z,88.74
2019-05-19T05:12:24.155Z,88.69
2019-05-19T05:14:52.864Z,87.83
2019-05-19T05:17:21.583Z,87.21
2019-05-19T05:19:50.287Z,85.76
2019-05-19T05:22:22.232Z,85.91
2019-05-19T05:24:49.761Z,85.24
2019-05-19T05:27:18.387Z,83.35
2019-05-19T05:29:47.083Z,85.48
2019-05-19T05:32:15.740Z,83.37
2019-05-19T05:34:44.823Z,82.26
2019-05-19T05:37:13.772Z,82.97
2019-05-19T05:39:42.467Z,83.65
2019-05-19T05:42:11.186Z,82.92
2019-05-19T05:44:39.845Z,83.77
2019-05-19T05:47:08.612Z,83.75
2019-05-19T05:49:37.331Z,80.24
2019-05-19T05:52:08.194Z,81.91
2019-05-19T05:54:36.923Z,81.33
2019-05-19T05:57:05.738Z,79.76
2019-05-19T05:59:34.402Z,80.65
2019-05-19T06:02:03.164Z,80.90
2019-05-19T06:04:32.091Z,80.29
2019-05-19T06:07:00.821Z,80.19
2019-05-19T06:09:29.557Z,81.21
2019-05-19T06:11:58.261Z,81.35
2019-05-19T06:14:27.102Z,81.05
2019-05-19T06:16:55.830Z,81.96
2019-05-19T06:19:24.647Z,80.56
2019-05-19T06:21:53.359Z,78.88
2019-05-19T06:24:22.065Z,79.15
2019-05-19T06:26:50.675Z,78.56
2019-05-19T06:29:19.490Z,77.23
2019-05-19T06:31:48.209Z,76.60
2019-05-19T06:34:17.222Z,74.50
2019-05-19T06:36:45.936Z,75.56
2019-05-19T06:39:14.864Z,74.33
2019-05-19T06:41:43.562Z,75.83
2019-05-19T06:44:12.253Z,74.23
2019-05-19T06:46:41.007Z,74.21
2019-05-19T06:49:09.829Z,73.67
2019-05-19T06:51:38.541Z,72.08
2019-05-19T06:54:07.661Z,71.77
2019-05-19T06:56:39.547Z,71.48
2019-05-19T06:59:08.363Z,69.59
2019-05-19T07:01:37.194Z,72.16
2019-05-19T07:04:06.130Z,71.71
2019-05-19T07:06:38.320Z,71.14
2019-05-19T07:09:07.855Z,70.42
2019-05-19T07:11:36.586Z,70.68
2019-05-19T07:14:06.864Z,69.98
2019-05-19T07:16:38.547Z,68.21
2019-05-19T07:19:07.384Z,68.35
2019-05-19T07:21:37.525Z,67.33
2019-05-19T07:24:09.223Z,67.40
2019-05-19T07:26:37.940Z,67.05
2019-05-19T07:29:06.673Z,65.95
2019-05-19T07:31:38.261Z,67.67
2019-05-19T07:34:06.930Z,66.14
2019-05-19T07:36:35.804Z,65.35
2019-05-19T07:39:06.384Z,66.37
2019-05-19T07:41:36.529Z,65.80
2019-05-19T07:44:06.655Z,65.04
2019-05-19T07:46:38.295Z,62.50
2019-05-19T07:49:06.993Z,65.66
2019-05-19T07:51:37.137Z,63.23
2019-05-19T07:54:07.266Z,62.54
2019-05-19T07:56:37.446Z,61.73
2019-05-19T07:59:08.834Z,60.80
2019-05-19T08:01:37.674Z,61.29
2019-05-19T08:04:06.325Z,61.31
2019-05-19T08:06:35.091Z,62.73
2019-05-19T08:09:05.472Z,61.27
2019-05-19T08:11:37.237Z,59.20
2019-05-19T08:14:07.631Z,58.46
2019-05-19T08:16:36.573Z,59.21
2019-05-19T08:19:06.781Z,58.15
2019-05-19T08:21:38.667Z,56.85
2019-05-19T08:24:07.685Z,52.75
2019-05-19T08:26:36.399Z,54.32
2019-05-19T08:29:06.655Z,54.82
2019-05-19T08:31:38.867Z,54.35
2019-05-19T08:34:07.968Z,57.27
2019-05-19T08:36:36.819Z,54.35
2019-05-19T08:39:06.593Z,56.65
2019-05-19T08:41:35.656Z,54.70
2019-05-19T08:44:06.535Z,54.59
2019-05-19T08:46:36.687Z,55.87
2019-05-19T08:49:08.085Z,53.96
2019-05-19T08:51:36.859Z,53.16
2019-05-19T08:54:15.144Z,52.08
2019-05-19T08:56:38.765Z,54.30
2019-05-19T08:59:07.414Z,53.02
2019-05-19T09:01:38.950Z,53.01
2019-05-19T09:04:07.684Z,54.08
2019-05-19T09:06:36.398Z,52.22
2019-05-19T09:09:06.445Z,51.64
2019-05-19T09:11:36.702Z,52.88
2019-05-19T09:14:08.092Z,52.17
2019-05-19T09:16:37.224Z,52.16
2019-05-19T09:19:07.381Z,52.19
2019-05-19T09:21:37.538Z,53.36
2019-05-19T09:24:09.137Z,52.65
2019-05-19T09:26:37.836Z,51.51
2019-05-19T09:29:07.540Z,52.62
2019-05-19T09:31:41.309Z,52.75
2019-05-19T09:34:09.519Z,53.18
2019-05-19T09:36:38.197Z,53.00
2019-05-19T09:39:07.552Z,52.13
2019-05-19T09:41:39.438Z,50.59
2019-05-19T09:44:08.162Z,51.94
2019-05-19T09:46:36.774Z,51.29
2019-05-19T09:49:26.398Z,49.01
2019-05-19T09:51:55.110Z,49.19
2019-05-19T09:54:23.825Z,50.42
2019-05-19T09:56:52.567Z,49.03
2019-05-19T09:59:21.249Z,47.29
2019-05-19T10:01:50.376Z,48.66
2019-05-19T10:04:19.051Z,46.75
2019-05-19T10:06:47.923Z,44.84
2019-05-19T10:09:20.374Z,46.72
2019-05-19T10:12:09.423Z,45.90
2019-05-19T10:14:38.230Z,44.49
2019-05-19T10:17:07.045Z,43.78
2019-05-19T10:19:35.756Z,44.36
2019-05-19T10:22:04.578Z,43.84
2019-05-19T10:24:33.294Z,45.04
2019-05-19T10:27:02.020Z,42.46
2019-05-19T10:29:30.728Z,44.09
2019-05-19T10:31:59.544Z,44.00
2019-05-19T10:34:28.318Z,44.01
2019-05-19T10:36:57.101Z,45.57
2019-05-19T10:39:25.717Z,42.48
2019-05-19T10:41:54.494Z,42.73
2019-05-19T10:44:23.218Z,42.81
2019-05-19T10:46:51.936Z,42.10
2019-05-19T10:49:20.968Z,44.64
2019-05-19T10:51:49.676Z,44.67
2019-05-19T10:54:18.448Z,43.22
2019-05-19T10:56:47.104Z,42.01
2019-05-19T10:59:16.120Z,41.58
2019-05-19T11:01:44.800Z,41.83
2019-05-19T11:04:13.469Z,42.41
2019-05-19T11:06:42.080Z,43.36
2019-05-19T11:09:11.105Z,44.21
2019-05-19T11:11:39.779Z,42.95
2019-05-19T11:14:08.439Z,42.78
2019-05-19T11:16:37.146Z,40.27
2019-05-19T11:19:05.863Z,40.65
2019-05-19T11:21:34.796Z,39.29
2019-05-19T11:24:04.011Z,39.62
2019-05-19T11:26:34.455Z,38.67
2019-05-19T11:29:03.235Z,38.58
2019-05-19T11:31:31.951Z,38.49
2019-05-19T11:34:00.675Z,39.92
2019-05-19T11:36:29.389Z,39.42
2019-05-19T11:38:58.054Z,40.48
2019-05-19T11:41:26.652Z,40.06
2019-05-19T11:43:55.243Z,39.65
2019-05-19T11:46:23.866Z,41.17
2019-05-19T11:48:52.685Z,39.99
2019-05-19T11:51:21.701Z,41.57
2019-05-19T11:53:50.520Z,43.13
2019-05-19T11:56:19.228Z,40.53
2019-05-19T11:58:47.894Z,40.90
2019-05-19T12:01:16.612Z,38.63
2019-05-19T12:03:45.632Z,39.34
2019-05-19T12:06:14.277Z,41.20
2019-05-19T12:08:42.945Z,39.95
2019-05-19T12:11:11.587Z,41.03
2019-05-19T12:13:40.265Z,42.79
2019-05-19T12:16:08.903Z,43.87
2019-05-19T12:18:37.573Z,41.33
2019-05-19T12:21:06.508Z,42.75
2019-05-19T12:23:36.609Z,42.82
2019-05-19T12:26:20.965Z,41.78
2019-05-19T12:28:37.094Z,46.31
2019-05-19T12:31:05.729Z,42.01
2019-05-19T12:33:34.395Z,45.51
2019-05-19T12:36:03.084Z,41.64
2019-05-19T12:38:31.776Z,43.24
2019-05-19T12:41:00.430Z,41.33
2019-05-19T12:43:29.098Z,39.88
2019-05-19T12:45:57.757Z,41.01
2019-05-19T12:48:26.417Z,43.19
2019-05-19T12:50:55.054Z,43.20
2019-05-19T12:53:23.701Z,42.49
2019-05-19T12:55:52.736Z,45.63
2019-05-19T12:58:21.400Z,46.38
2019-05-19T13:00:50.023Z,46.36
2019-05-19T13:03:18.604Z,41.42
2019-05-19T13:05:47.565Z,41.19
2019-05-19T13:08:16.210Z,41.42
2019-05-19T13:10:44.846Z,44.33
2019-05-19T13:13:13.524Z,43.36
2019-05-19T13:15:42.259Z,44.00
2019-05-19T13:18:10.897Z,42.16
2019-05-19T13:20:39.561Z,44.52
2019-05-19T13:23:08.203Z,40.33
2019-05-19T13:25:36.858Z,41.26
2019-05-19T13:28:08.497Z,40.52
2019-05-19T13:30:37.149Z,39.43
2019-05-19T13:33:05.808Z,39.32
2019-05-19T13:35:34.864Z,39.50
2019-05-19T13:38:03.986Z,39.59
2019-05-19T13:40:32.622Z,38.94
2019-05-19T13:43:01.190Z,37.44
2019-05-19T13:45:30.118Z,39.20
2019-05-19T13:47:58.690Z,41.63
2019-05-19T13:50:27.341Z,45.30
2019-05-19T13:52:56.266Z,43.50
2019-05-19T13:55:24.914Z,44.40
2019-05-19T13:57:53.635Z,44.45
2019-05-19T14:00:22.304Z,45.49
2019-05-19T14:02:50.951Z,44.87
2019-05-19T14:05:19.623Z,45.24
2019-05-19T14:07:48.267Z,44.48
2019-05-19T14:10:17.225Z,46.10
2019-05-19T14:12:45.910Z,43.74
2019-05-19T14:15:14.637Z,41.96
2019-05-19T14:17:43.296Z,42.79
2019-05-19T14:20:12.264Z,40.36
2019-05-19T14:22:41.194Z,40.30
2019-05-19T14:25:10.083Z,40.69
2019-05-19T14:27:38.722Z,38.79
2019-05-19T14:30:07.825Z,42.18
2019-05-19T14:32:36.436Z,40.92
2019-05-19T14:35:07.749Z,43.29
2019-05-19T14:37:36.499Z,43.96
2019-05-19T14:40:06.387Z,42.79
2019-05-19T14:42:56.179Z,41.85
2019-05-19T14:45:25.110Z,42.97
2019-05-19T14:47:53.931Z,45.07
2019-05-19T14:50:22.653Z,46.86
2019-05-19T14:52:51.361Z,49.36
2019-05-19T14:55:20.381Z,50.13
2019-05-19T14:57:49.323Z,50.37
2019-05-19T15:00:19.104Z,52.19
2019-05-19T15:02:47.862Z,50.79
2019-05-19T15:05:17.027Z,50.39
2019-05-19T15:07:45.754Z,52.14
2019-05-19T15:10:15.914Z,51.78
2019-05-19T15:12:44.555Z,48.93
2019-05-19T15:15:15.620Z,46.64
2019-05-19T15:17:44.747Z,47.08
2019-05-19T15:20:13.982Z,46.28
2019-05-19T15:22:42.792Z,46.05
2019-05-19T15:25:11.544Z,45.09
2019-05-19T15:27:40.315Z,47.25
2019-05-19T15:30:13.512Z,50.54
2019-05-19T15:32:39.590Z,49.33
2019-05-19T15:35:08.457Z,47.10
2019-05-19T15:37:37.448Z,46.09
2019-05-19T15:40:10.236Z,46.76
2019-05-19T15:42:38.886Z,49.43
2019-05-19T15:45:08.928Z,51.18
2019-05-19T15:47:37.696Z,52.42
2019-05-19T15:50:07.920Z,54.91
2019-05-19T15:52:36.553Z,54.52
2019-05-19T15:55:06.207Z,56.04
2019-05-19T15:57:36.684Z,56.16
2019-05-19T16:00:08.494Z,56.00
2019-05-19T16:02:37.268Z,54.42
2019-05-19T16:05:08.954Z,56.38
2019-05-19T16:07:37.629Z,55.63
2019-05-19T16:10:09.090Z,56.86
2019-05-19T16:12:38.134Z,57.22
2019-05-19T16:15:08.016Z,57.88
2019-05-19T16:17:36.683Z,58.90
2019-05-19T16:20:09.726Z,58.88
2019-05-19T16:22:38.567Z,59.20
2019-05-19T16:25:08.233Z,60.99
2019-05-19T16:27:36.880Z,60.50
2019-05-19T16:30:07.937Z,61.86
2019-05-19T16:32:36.604Z,62.18
2019-05-19T16:35:06.765Z,62.38
2019-05-19T16:37:38.418Z,64.06
2019-05-19T16:40:07.413Z,64.10
2019-05-19T16:42:38.818Z,63.85
2019-05-19T16:45:08.567Z,64.43
2019-05-19T16:47:37.231Z,64.57
2019-05-19T16:50:07.445Z,65.07
2019-05-19T16:52:39.372Z,65.44
2019-05-19T16:55:15.569Z,67.33
2019-05-19T16:57:44.311Z,65.22
2019-05-19T17:00:14.035Z,66.00
2019-05-19T17:02:42.894Z,65.27
2019-05-19T17:05:12.015Z,65.84
2019-05-19T17:07:40.690Z,66.24
2019-05-19T17:10:10.217Z,66.17
2019-05-19T17:12:38.953Z,65.76
2019-05-19T17:15:07.968Z,65.34
2019-05-19T17:17:36.934Z,63.70
2019-05-19T17:20:09.930Z,64.27
2019-05-19T17:22:38.709Z,65.65
2019-05-19T17:25:07.930Z,65.52
2019-05-19T17:27:37.018Z,62.27
2019-05-19T17:30:08.532Z,58.85
2019-05-19T17:32:37.267Z,59.10
2019-05-19T17:35:07.758Z,61.11
2019-05-19T17:37:36.572Z,63.59
2019-05-19T17:40:06.114Z,64.97
2019-05-19T17:42:37.307Z,64.64
2019-05-19T17:45:07.750Z,66.54
2019-05-19T17:47:36.667Z,66.00
2019-05-19T17:50:06.532Z,63.92
2019-05-19T17:52:36.888Z,63.93
2019-05-19T17:55:09.187Z,64.78
2019-05-19T17:57:38.677Z,66.46
2019-05-19T18:00:10.716Z,67.40
2019-05-19T18:02:39.527Z,67.70
2019-05-19T18:05:08.985Z,68.74
2019-05-19T18:07:37.649Z,68.95
2019-05-19T18:10:11.001Z,68.79
2019-05-19T18:12:40.359Z,69.86
2019-05-19T18:15:09.637Z,71.10
2019-05-19T18:17:38.365Z,71.75
2019-05-19T18:20:07.371Z,72.15
2019-05-19T18:22:37.546Z,69.90
2019-05-19T18:25:08.938Z,76.84
2019-05-19T18:27:37.662Z,83.10
2019-05-19T18:30:10.224Z,85.75
2019-05-19T18:32:39.116Z,88.24
2019-05-19T18:35:08.374Z,86.21
2019-05-19T18:37:36.998Z,88.44
2019-05-19T18:40:07.076Z,89.34
2019-05-19T18:42:35.890Z,91.17
2019-05-19T18:45:05.424Z,92.32
2019-05-19T18:47:34.550Z,84.98
2019-05-19T18:50:05.828Z,84.14
2019-05-19T18:52:34.541Z,87.02
2019-05-19T18:55:03.975Z,86.98
2019-05-19T18:57:32.574Z,89.95
2019-05-19T19:00:01.285Z,90.48
2019-05-19T19:02:30.321Z,91.69
2019-05-19T19:04:59.338Z,92.57
2019-05-19T19:07:45.778Z,91.98
2019-05-19T19:10:14.555Z,91.77
2019-05-19T19:12:43.289Z,92.31
2019-05-19T19:15:12.121Z,93.02
2019-05-19T19:17:40.854Z,93.17
2019-05-19T19:20:09.797Z,93.61
2019-05-19T19:22:38.920Z,94.25
2019-05-19T19:25:08.771Z,95.22
2019-05-19T19:27:37.510Z,95.97
2019-05-19T19:30:09.095Z,96.17
2019-05-19T19:32:37.872Z,96.46
2019-05-19T19:35:08.515Z,96.85
2019-05-19T19:37:37.792Z,97.11
2019-05-19T19:40:27.537Z,97.35
2019-05-19T19:42:56.350Z,97.62
2019-05-19T19:45:25.178Z,98.04
2019-05-19T19:47:53.865Z,98.03
2019-05-19T19:50:22.620Z,98.37
2019-05-19T19:52:51.453Z,98.40
2019-05-19T19:55:20.255Z,98.50
2019-05-19T19:57:49.381Z,98.83
2019-05-19T20:00:27.019Z,98.91
2019-05-19T20:02:55.737Z,99.13
2019-05-19T20:05:24.765Z,99.20
2019-05-19T20:07:54.007Z,99.29
2019-05-19T20:10:22.718Z,99.28
2019-05-19T20:12:51.436Z,99.42
2019-05-19T20:15:20.146Z,99.50
2019-05-19T20:17:48.855Z,99.99
2019-05-19T20:20:17.493Z,100.00
2019-05-19T20:22:46.080Z,100.00
2019-05-19T20:25:14.804Z,99.93
2019-05-19T20:27:43.632Z,99.95
2019-05-19T20:30:12.366Z,100.00
2019-05-19T20:32:40.984Z,99.96
2019-05-19T20:35:09.989Z,99.77
2019-05-19T20:37:38.729Z,100.00
2019-05-19T20:40:11.508Z,100.00
2019-05-19T20:42:40.360Z,99.95
2019-05-19T20:45:09.186Z,99.80
2019-05-19T20:47:38.014Z,99.17
2019-05-19T20:50:07.441Z,99.08
2019-05-19T20:52:38.949Z,98.92
2019-05-19T20:55:07.661Z,98.07
2019-05-19T20:57:36.485Z,98.03
2019-05-19T21:00:07.250Z,98.35
2019-05-19T21:02:37.429Z,98.75
2019-05-19T21:05:08.899Z,98.89
2019-05-19T21:07:37.614Z,99.57
2019-05-19T21:10:09.396Z,99.89
2019-05-19T21:12:38.106Z,100.00
2019-05-19T21:15:07.147Z,100.00
2019-05-19T21:17:35.895Z,100.00
2019-05-19T21:20:08.626Z,100.00
2019-05-19T21:22:37.733Z,100.00
2019-05-19T21:25:08.223Z,100.00
2019-05-19T21:27:37.057Z,100.00
2019-05-19T21:30:06.862Z,100.00
2019-05-19T21:32:38.294Z,100.00
2019-05-19T21:35:08.427Z,99.71
2019-05-19T21:37:37.137Z,99.20
2019-05-19T21:40:07.453Z,99.63
2019-05-19T21:42:38.812Z,100.00
2019-05-19T21:45:07.868Z,100.00
2019-05-19T21:47:36.666Z,100.00
2019-05-19T21:50:08.828Z,100.00
2019-05-19T21:52:37.491Z,100.00
2019-05-19T21:55:09.448Z,100.00
2019-05-19T21:57:38.217Z,100.00
2019-05-19T22:00:10.047Z,100.00
2019-05-19T22:02:39.212Z,100.00
2019-05-19T22:05:08.647Z,100.00
2019-05-19T22:07:45.246Z,100.00
2019-05-19T22:10:14.383Z,100.00
2019-05-19T22:12:43.008Z,100.00
2019-05-19T22:15:12.028Z,100.00
2019-05-19T22:17:40.746Z,100.00
2019-05-19T22:20:09.880Z,100.00
2019-05-19T22:22:39.361Z,100.00
2019-05-19T22:25:09.162Z,100.00
2019-05-19T22:27:38.553Z,100.00
2019-05-19T22:30:08.206Z,100.00
2019-05-19T22:32:37.058Z,100.00
2019-05-19T22:35:07.295Z,100.00
2019-05-19T22:37:37.469Z,100.00
2019-05-19T22:40:10.125Z,100.00
2019-05-19T22:42:38.784Z,100.00
2019-05-19T22:45:07.623Z,100.00
2019-05-19T22:47:39.489Z,100.00
2019-05-19T22:50:08.900Z,100.00
2019-05-19T22:52:37.619Z,100.00
2019-05-19T22:55:09.302Z,100.00
2019-05-19T22:57:38.113Z,100.00
2019-05-19T23:00:09.841Z,100.00
2019-05-19T23:02:38.643Z,100.00
2019-05-19T23:05:08.097Z,100.00
2019-05-19T23:07:36.944Z,100.00
2019-05-19T23:10:07.646Z,100.00
2019-05-19T23:12:39.445Z,100.00
2019-05-19T23:15:08.877Z,100.00
2019-05-19T23:17:37.588Z,100.00
2019-05-19T23:20:07.441Z,100.00
2019-05-19T23:22:37.611Z,100.00
2019-05-19T23:25:09.284Z,100.00
2019-05-19T23:27:38.046Z,100.00
2019-05-19T23:30:08.062Z,100.00
2019-05-19T23:32:37.174Z,100.00
2019-05-19T23:35:09.131Z,100.00
2019-05-19T23:37:37.781Z,100.00
2019-05-19T23:40:07.718Z,100.00
2019-05-19T23:42:36.592Z,100.00
2019-05-19T23:45:08.453Z,100.00
2019-05-19T23:47:37.191Z,100.00
2019-05-19T23:50:09.392Z,100.00
2019-05-19T23:52:38.102Z,100.00
2019-05-19T23:55:08.957Z,100.00
2019-05-19T23:57:37.711Z,100.00
